Terminal Aerodrome Forecast
Issued by NWS Charleston, WV

Current Version | Previous Version | Graphics & Text | Print | Product List | Glossary On
Versions: 1 2 3 4 5 6 7 8 9 10 11 12 13 14 15 16 17 18 19 20 21 22 23 24 25 26 27 28
000
FTUS41 KRLX 130200 AAA
TAFEKN
TAF AMD
KEKN 130225Z 1302/1324 VRB03KT P6SM BKN035 OVC100
      TEMPO 1304/1308 BKN025
     FM130800 15007KT 6SM -SHRA BR BKN025
     FM131000 18005KT 4SM -SHRA BR OVC015
     FM131200 00000KT 4SM -SHRA BR OVC010
     FM131700 29006KT 6SM -SHRA BR OVC015
     FM132000 30007KT P6SM BKN025=

USA.gov is the U.S. government's official web portal to all federal, state and local government web resources and services.